Time;durP1;ratioP1;P1;durP2;ratioP2;P2;SDS_P1;SDS_P2;PMS_P1;PMS_P2;Temp;Humidity;BMP_temperature;BMP_pressure;BME280_temperature;BME280_humidity;BME280_pressure;Samples;Min_cycle;Max_cycle;Signal;HPM_P1;HPM_P2
2022/03/03 00:01:58;;;;;;;31.33;16.50;;;;;;;-4.71;85.92;99117.56;4187774;28;20082;-72
2022/03/03 00:03:58;;;;;;;34.58;17.85;;;;;;;-4.78;87.00;99116.97;4191598;28;20757;-72
2022/03/03 00:05:58;;;;;;;29.35;15.63;;;;;;;-4.86;87.21;99130.97;4187662;28;20072;-72
2022/03/03 00:07:58;;;;;;;35.90;15.98;;;;;;;-4.92;88.10;99134.72;4186781;28;20032;-72
2022/03/03 00:09:59;;;;;;;34.38;15.10;;;;;;;-4.96;88.07;99129.03;4188694;28;20043;-72
2022/03/03 00:12:00;;;;;;;33.50;15.27;;;;;;;-4.97;88.81;99140.88;4187619;28;20511;-72
2022/03/03 00:14:00;;;;;;;32.75;15.57;;;;;;;-4.97;90.00;99130.06;4189702;28;20427;-72
2022/03/03 00:16:02;;;;;;;28.45;14.75;;;;;;;-4.94;89.96;99126.06;4194610;28;20041;-72
2022/03/03 00:18:02;;;;;;;28.98;14.73;;;;;;;-4.87;89.85;99130.16;4186923;28;20064;-72
2022/03/03 00:20:03;;;;;;;30.08;13.93;;;;;;;-4.87;89.29;99123.94;4193897;28;20024;-72
2022/03/03 00:22:04;;;;;;;31.40;14.90;;;;;;;-4.93;88.03;99125.00;4190126;28;20036;-72
2022/03/03 00:24:04;;;;;;;28.60;15.18;;;;;;;-4.93;87.76;99119.59;4187561;28;20404;-73
2022/03/03 00:26:05;;;;;;;28.17;14.00;;;;;;;-4.90;88.58;99130.66;4187404;28;20032;-72
2022/03/03 00:28:05;;;;;;;29.48;13.27;;;;;;;-4.90;88.79;99124.47;4186317;28;20507;-72
2022/03/03 00:30:06;;;;;;;28.77;14.35;;;;;;;-4.87;88.08;99129.34;4187126;28;20047;-72
2022/03/03 00:32:07;;;;;;;24.13;14.02;;;;;;;-4.89;86.95;99126.88;4187574;28;20580;-72
2022/03/03 00:34:07;;;;;;;29.23;13.77;;;;;;;-4.83;85.45;99123.16;4187112;28;20115;-72
2022/03/03 00:36:08;;;;;;;26.40;13.00;;;;;;;-4.86;84.77;99117.47;4187110;28;20024;-72
2022/03/03 00:38:09;;;;;;;30.05;13.43;;;;;;;-4.95;85.42;99121.75;4186476;28;20115;-72
2022/03/03 00:40:10;;;;;;;24.75;12.57;;;;;;;-5.01;86.46;99114.69;4187135;28;20032;-72
2022/03/03 00:42:10;;;;;;;30.23;13.43;;;;;;;-5.05;86.81;99110.88;4187135;28;20234;-72
2022/03/03 00:44:11;;;;;;;28.83;15.48;;;;;;;-5.12;86.64;99119.22;4186823;28;20028;-72
2022/03/03 00:46:11;;;;;;;29.95;14.30;;;;;;;-5.24;87.57;99115.88;4187354;28;20366;-72
2022/03/03 00:48:11;;;;;;;29.13;14.65;;;;;;;-5.32;88.43;99121.75;4186574;28;20032;-72
2022/03/03 00:50:12;;;;;;;29.23;13.48;;;;;;;-5.32;88.61;99114.47;4186715;28;20031;-72
2022/03/03 00:52:12;;;;;;;26.23;14.48;;;;;;;-5.31;87.71;99118.78;4198656;28;20387;-72
2022/03/03 00:54:13;;;;;;;26.50;14.52;;;;;;;-5.31;88.33;99120.69;4199586;28;20443;-72
2022/03/03 00:56:13;;;;;;;25.80;14.05;;;;;;;-5.24;87.48;99118.56;4186924;28;20337;-72
2022/03/03 00:58:13;;;;;;;25.73;12.98;;;;;;;-5.21;86.98;99118.06;4186160;28;20739;-72
2022/03/03 01:00:15;;;;;;;29.42;14.73;;;;;;;-5.16;86.96;99116.22;4186736;28;20020;-72
2022/03/03 01:02:15;;;;;;;27.27;14.90;;;;;;;-5.22;86.23;99119.94;4186972;28;20032;-71
2022/03/03 01:04:15;;;;;;;25.80;13.80;;;;;;;-5.25;86.76;99119.66;4187121;28;20032;-72
2022/03/03 01:06:16;;;;;;;25.33;14.23;;;;;;;-5.27;87.35;99125.31;4187303;28;20055;-72
2022/03/03 01:08:16;;;;;;;26.73;14.23;;;;;;;-5.33;87.45;99134.44;4185863;28;20660;-72
2022/03/03 01:10:17;;;;;;;32.60;15.60;;;;;;;-5.38;88.54;99131.69;4187477;28;20067;-72
2022/03/03 01:12:17;;;;;;;27.27;13.88;;;;;;;-5.41;88.90;99134.91;4186661;28;20028;-72
2022/03/03 01:14:21;;;;;;;28.70;14.05;;;;;;;-5.33;88.79;99139.00;4186204;28;20032;-72
2022/03/03 01:16:21;;;;;;;27.55;14.00;;;;;;;-5.34;87.33;99121.22;4186417;28;20122;-72
2022/03/03 01:18:22;;;;;;;30.60;14.52;;;;;;;-5.32;88.36;99133.34;4185904;28;20082;-72
2022/03/03 01:20:22;;;;;;;21.80;13.38;;;;;;;-5.32;88.26;99117.16;4187226;28;20045;-72
2022/03/03 01:22:23;;;;;;;22.90;14.18;;;;;;;-5.22;87.74;99122.63;4186441;28;20040;-72
2022/03/03 01:24:24;;;;;;;27.70;13.73;;;;;;;-5.20;87.88;99117.00;4198276;28;20044;-72
2022/03/03 01:26:24;;;;;;;29.92;14.60;;;;;;;-5.17;87.46;99111.88;4200574;28;20151;-72
2022/03/03 01:28:24;;;;;;;26.67;13.98;;;;;;;-5.12;86.66;99113.81;4196909;28;20094;-72
2022/03/03 01:30:25;;;;;;;22.85;13.05;;;;;;;-5.09;85.88;99105.19;4186589;28;20431;-72
2022/03/03 01:32:25;;;;;;;27.15;13.27;;;;;;;-5.16;86.34;99110.00;4196553;28;20847;-72
2022/03/03 01:34:25;;;;;;;27.58;14.63;;;;;;;-5.12;85.88;99106.53;4190369;28;20068;-72
2022/03/03 01:36:26;;;;;;;25.75;13.50;;;;;;;-5.16;85.49;99096.50;4192871;28;20198;-72
2022/03/03 01:38:26;;;;;;;23.27;13.05;;;;;;;-5.18;85.46;99102.16;4185896;28;20803;-72
2022/03/03 01:40:28;;;;;;;22.90;12.63;;;;;;;-5.18;85.39;99095.97;4186233;28;21046;-72
2022/03/03 01:42:28;;;;;;;27.58;14.40;;;;;;;-5.17;85.88;99082.22;4186250;28;20527;-72
2022/03/03 01:44:28;;;;;;;26.40;13.05;;;;;;;-5.12;85.96;99073.34;4186420;28;20105;-72
2022/03/03 01:46:29;;;;;;;20.83;11.77;;;;;;;-5.16;85.40;99059.53;4186557;28;20131;-72
2022/03/03 01:48:30;;;;;;;21.98;13.25;;;;;;;-5.17;85.64;99049.84;4185680;28;20484;-72
2022/03/03 01:50:30;;;;;;;22.30;12.32;;;;;;;-5.16;85.83;99043.34;4186272;28;20539;-72
2022/03/03 01:52:30;;;;;;;25.05;12.52;;;;;;;-5.11;86.25;99047.97;4186673;28;20477;-72
2022/03/03 01:54:31;;;;;;;22.83;12.02;;;;;;;-5.20;85.35;99041.47;4187837;28;20037;-72
2022/03/03 01:56:31;;;;;;;26.25;11.68;;;;;;;-5.25;85.71;99038.72;4202274;28;20483;-72
2022/03/03 01:58:32;;;;;;;27.30;13.07;;;;;;;-5.24;84.98;99040.34;4194316;28;20443;-72
2022/03/03 02:00:33;;;;;;;30.75;11.75;;;;;;;-5.16;84.75;99037.97;4190801;28;20044;-72
2022/03/03 02:02:34;;;;;;;21.75;12.82;;;;;;;-5.15;85.12;99036.88;4189837;28;20387;-72
2022/03/03 02:04:35;;;;;;;25.55;13.32;;;;;;;-5.17;83.69;99036.34;4187905;28;20414;-72
2022/03/03 02:06:35;;;;;;;24.95;13.82;;;;;;;-5.24;84.32;99022.28;4195962;28;20051;-72
2022/03/03 02:08:36;;;;;;;24.15;13.15;;;;;;;-5.33;84.42;99036.53;4194915;28;20063;-72
2022/03/03 02:10:38;;;;;;;30.23;14.10;;;;;;;-5.50;85.28;99032.09;4193633;28;20294;-71
2022/03/03 02:12:38;;;;;;;24.92;13.40;;;;;;;-5.61;87.39;99048.47;4195818;28;20136;-71
2022/03/03 02:14:47;;;;;;;27.77;12.77;;;;;;;-5.77;88.50;99047.56;4195160;28;20071;-71
2022/03/03 02:16:47;;;;;;;25.50;14.65;;;;;;;-5.89;89.98;99044.19;4195360;28;20040;-71
2022/03/03 02:18:48;;;;;;;26.48;13.77;;;;;;;-5.99;91.78;99047.66;4196591;28;20388;-71
2022/03/03 02:20:48;;;;;;;32.05;14.70;;;;;;;-6.07;92.72;99050.81;4194482;28;20037;-71
2022/03/03 02:22:50;;;;;;;27.60;14.73;;;;;;;-6.08;94.25;99051.91;4195910;28;20037;-71
2022/03/03 02:24:50;;;;;;;24.40;12.90;;;;;;;-6.09;94.10;99042.19;4196217;28;20044;-71
2022/03/03 02:26:53;;;;;;;26.42;14.60;;;;;;;-5.93;93.79;99041.25;4195625;28;20043;-71
2022/03/03 02:28:53;;;;;;;25.45;14.10;;;;;;;-5.78;91.31;99030.56;4195556;28;20380;-71
2022/03/03 02:30:54;;;;;;;26.98;12.88;;;;;;;-5.60;89.92;99023.13;4196523;28;20048;-71
2022/03/03 02:32:56;;;;;;;30.50;13.52;;;;;;;-5.59;88.19;99025.56;4196458;28;20041;-71
2022/03/03 02:34:56;;;;;;;30.40;13.88;;;;;;;-5.58;87.64;99021.00;4195413;28;20051;-71
2022/03/03 02:36:56;;;;;;;22.35;12.18;;;;;;;-5.62;87.85;99025.28;4196353;28;20043;-71
2022/03/03 02:39:02;;;;;;;29.38;12.45;;;;;;;-5.61;89.45;99025.03;4194218;28;20047;-71
2022/03/03 02:41:03;;;;;;;24.17;13.05;;;;;;;-5.55;88.04;99026.66;4195430;28;20044;-71
2022/03/03 02:43:03;;;;;;;24.90;12.82;;;;;;;-5.56;88.23;99024.22;4198138;28;20037;-71
2022/03/03 02:45:04;;;;;;;26.58;13.32;;;;;;;-5.53;87.81;99015.66;4195204;28;20040;-71
2022/03/03 02:47:05;;;;;;;20.60;11.95;;;;;;;-5.47;86.79;99026.19;4197835;28;21083;-71
2022/03/03 02:49:05;;;;;;;23.88;12.77;;;;;;;-5.48;86.05;99013.78;4189057;28;20119;-71
2022/03/03 02:51:07;;;;;;;24.15;12.48;;;;;;;-5.43;86.40;99015.69;4195718;28;20040;-71
2022/03/03 02:53:07;;;;;;;24.95;12.95;;;;;;;-5.39;86.08;99006.81;4197150;28;20082;-71
2022/03/03 02:55:09;;;;;;;21.40;11.32;;;;;;;-5.42;85.01;99009.22;4194930;28;20044;-71
2022/03/03 02:59:28;;;;;;;22.17;13.15;;;;;;;-5.60;85.56;98996.19;4197880;28;20422;-72
2022/03/03 03:01:28;;;;;;;23.35;12.48;;;;;;;-5.59;86.72;99004.00;4197639;28;20036;-72
2022/03/03 03:03:29;;;;;;;27.17;12.57;;;;;;;-5.72;86.19;99005.25;4196102;28;20532;-72
2022/03/03 03:05:29;;;;;;;31.23;12.85;;;;;;;-5.82;86.49;98999.81;4194926;28;20424;-72
2022/03/03 03:07:30;;;;;;;24.08;12.40;;;;;;;-5.95;87.46;98995.72;4194461;28;20066;-72
2022/03/03 03:09:30;;;;;;;23.55;11.98;;;;;;;-5.99;88.04;98989.19;4191611;28;20045;-72
2022/03/03 03:11:30;;;;;;;25.88;12.93;;;;;;;-6.03;88.01;98980.03;4193197;28;20033;-72
2022/03/03 03:13:31;;;;;;;24.00;12.52;;;;;;;-6.07;88.39;98984.28;4194076;28;20416;-71
2022/03/03 03:15:32;;;;;;;20.10;11.85;;;;;;;-6.13;87.04;98988.00;4194415;28;20173;-71
2022/03/03 03:17:32;;;;;;;22.23;11.88;;;;;;;-6.08;88.68;98969.19;4193805;28;20399;-72
2022/03/03 03:19:33;;;;;;;28.42;12.10;;;;;;;-6.08;88.91;98982.66;4193832;28;20115;-71
2022/03/03 03:21:33;;;;;;;24.00;13.18;;;;;;;-6.04;87.43;98974.88;4194710;28;20045;-72
2022/03/03 03:23:33;;;;;;;23.95;12.10;;;;;;;-6.11;88.08;98963.53;4193355;28;20037;-72
2022/03/03 03:25:34;;;;;;;23.27;11.90;;;;;;;-6.18;88.11;98969.13;4192888;28;20035;-72
2022/03/03 03:27:36;;;;;;;24.55;12.65;;;;;;;-6.23;88.90;98972.56;4192078;28;20119;-71
2022/03/03 03:29:36;;;;;;;;;;;;;;;-6.29;88.04;98962.84;4190308;28;20037;-71
2022/03/03 03:31:37;;;;;;;24.88;11.35;;;;;;;-6.41;89.19;98956.00;4193978;28;19913;-71
2022/03/03 03:33:37;;;;;;;24.08;11.15;;;;;;;-6.42;89.49;98951.69;4194263;28;20041;-71
2022/03/03 03:35:38;;;;;;;21.15;11.68;;;;;;;-6.44;89.97;98949.25;4193456;28;20309;-71
2022/03/03 03:37:38;;;;;;;26.02;12.55;;;;;;;-6.48;90.51;98936.53;4192546;28;20419;-72
2022/03/03 03:39:38;;;;;;;20.73;11.75;;;;;;;-6.45;89.47;98931.47;4183965;28;20044;-72
2022/03/03 03:41:39;;;;;;;23.45;12.57;;;;;;;-6.50;87.78;98931.41;4191056;28;20416;-71
2022/03/03 03:43:39;;;;;;;24.02;12.90;;;;;;;-6.50;89.14;98936.78;4193057;28;20435;-71
2022/03/03 03:45:40;;;;;;;27.50;12.13;;;;;;;-6.46;87.33;98945.97;4190980;28;20326;-71
2022/03/03 03:47:41;;;;;;;26.33;11.90;;;;;;;-6.54;86.86;98947.28;4193543;28;20033;-71
2022/03/03 03:49:41;;;;;;;23.60;13.27;;;;;;;-6.61;88.08;98960.13;4193618;28;20468;-71
2022/03/03 03:51:41;;;;;;;25.40;12.25;;;;;;;-6.69;89.10;98960.59;4191669;28;20311;-71
2022/03/03 03:53:42;;;;;;;25.95;13.93;;;;;;;-6.74;90.60;98962.41;4193099;28;20127;-71
2022/03/03 03:55:42;;;;;;;27.48;12.80;;;;;;;-6.83;92.14;98960.16;4191100;28;20128;-72
2022/03/03 03:57:42;;;;;;;27.98;13.00;;;;;;;-6.85;92.46;98969.56;4190280;28;20051;-73
2022/03/03 03:59:43;;;;;;;35.45;13.13;;;;;;;-6.73;93.71;98970.22;4192719;28;20036;-72
2022/03/03 04:01:43;;;;;;;24.88;12.98;;;;;;;-6.65;91.68;98966.25;4190553;28;20060;-73
2022/03/03 04:03:43;;;;;;;28.35;13.60;;;;;;;-6.65;91.81;98967.06;4186865;28;20113;-72
2022/03/03 04:05:44;;;;;;;26.10;13.32;;;;;;;-6.67;91.34;98961.13;4190886;28;20041;-73
2022/03/03 04:07:44;;;;;;;25.85;13.32;;;;;;;-6.71;92.36;98945.72;4188400;28;20135;-73
2022/03/03 04:09:45;;;;;;;31.17;13.70;;;;;;;-6.64;92.09;98949.03;4187561;28;20050;-73
2022/03/03 04:11:45;;;;;;;27.88;13.77;;;;;;;-6.68;92.00;98943.38;4187597;28;20573;-73
2022/03/03 04:13:46;;;;;;;23.23;12.43;;;;;;;-6.66;91.19;98945.81;4198123;28;20447;-73
2022/03/03 04:15:46;;;;;;;27.83;14.15;;;;;;;-6.66;91.85;98948.50;4198156;28;20041;-72
2022/03/03 04:17:48;;;;;;;25.02;13.93;;;;;;;-6.65;90.70;98958.19;4202908;28;20040;-73
2022/03/03 04:19:49;;;;;;;30.42;13.02;;;;;;;-6.65;90.31;98963.56;4187983;28;20733;-73
2022/03/03 04:21:49;;;;;;;29.33;14.18;;;;;;;-6.63;90.51;98969.50;4187129;28;20091;-72
2022/03/03 04:23:49;;;;;;;28.85;13.88;;;;;;;-6.64;90.02;98965.19;4193955;28;20040;-72
2022/03/03 04:25:49;;;;;;;37.75;15.55;;;;;;;-6.65;90.68;98960.88;4193452;28;20048;-73
2022/03/03 04:27:50;;;;;;;26.33;13.55;;;;;;;-6.68;90.33;98958.72;4186999;28;20045;-73
2022/03/03 04:29:50;;;;;;;24.02;12.77;;;;;;;-6.67;92.11;98965.72;4187133;28;20407;-72
2022/03/03 04:31:53;;;;;;;25.48;14.00;;;;;;;-6.69;90.04;98963.28;4187700;28;20051;-72
2022/03/03 04:33:55;;;;;;;24.05;14.80;;;;;;;-6.68;90.35;98964.09;4187170;28;20067;-72
2022/03/03 04:35:59;;;;;;;25.13;13.32;;;;;;;-6.66;90.07;98960.06;4185072;28;20044;-73
2022/03/03 04:37:59;;;;;;;23.67;14.40;;;;;;;-6.59;89.42;98965.25;4185999;28;20060;-73
2022/03/03 04:40:00;;;;;;;29.88;14.95;;;;;;;-6.58;88.45;98970.38;4189958;28;20078;-73
2022/03/03 04:42:00;;;;;;;36.33;18.30;;;;;;;-6.60;88.21;98969.00;4182904;28;20455;-72
2022/03/03 04:44:01;;;;;;;25.98;13.50;;;;;;;-6.70;88.68;98972.41;4187426;28;20499;-72
2022/03/03 04:46:01;;;;;;;28.02;13.60;;;;;;;-6.83;90.51;98967.44;4192323;28;20111;-72
2022/03/03 04:48:01;;;;;;;26.00;12.70;;;;;;;-6.91;90.60;98967.88;4190213;28;20029;-73
2022/03/03 04:50:03;;;;;;;30.63;14.73;;;;;;;-6.99;92.71;98969.13;4191615;28;20028;-73
2022/03/03 04:52:04;;;;;;;22.80;12.45;;;;;;;-7.07;91.88;98958.81;4191889;28;20055;-73
2022/03/03 04:54:05;;;;;;;28.73;12.88;;;;;;;-7.08;92.68;98968.78;4190452;28;20375;-72
2022/03/03 04:56:06;;;;;;;26.27;13.82;;;;;;;-7.01;93.61;98960.50;4191441;28;20031;-72
2022/03/03 04:58:06;;;;;;;33.28;14.52;;;;;;;-6.99;92.42;98960.25;4191681;28;20024;-72
2022/03/03 05:00:08;;;;;;;24.17;13.55;;;;;;;-6.99;92.49;98962.94;4191769;28;20024;-73
2022/03/03 05:02:08;;;;;;;26.60;13.67;;;;;;;-6.96;93.20;98965.13;4190740;28;20024;-72
2022/03/03 05:04:08;;;;;;;27.40;13.95;;;;;;;-7.03;92.49;98969.88;4191017;28;20306;-72
2022/03/03 05:06:09;;;;;;;23.45;14.07;;;;;;;-7.11;91.78;98974.66;4189105;28;20312;-73
2022/03/03 05:08:09;;;;;;;23.70;13.10;;;;;;;-7.11;92.91;98963.91;4188377;28;20492;-73
2022/03/03 05:10:09;;;;;;;26.05;14.05;;;;;;;-7.07;93.43;98965.00;4192054;28;20035;-73
2022/03/03 05:12:10;;;;;;;37.05;17.40;;;;;;;-7.05;92.95;98967.44;4205634;28;20048;-73
2022/03/03 05:14:10;;;;;;;31.42;15.60;;;;;;;-7.07;93.14;98962.31;4190937;28;20765;-73
2022/03/03 05:16:11;;;;;;;30.27;14.43;;;;;;;-7.07;92.02;98962.31;4190200;28;20384;-73
2022/03/03 05:18:11;;;;;;;30.67;16.70;;;;;;;-7.03;92.54;98962.66;4185581;28;20031;-72
2022/03/03 05:20:13;;;;;;;33.80;16.10;;;;;;;-7.07;92.72;98966.88;4185469;28;20252;-72
2022/03/03 05:22:13;;;;;;;35.97;16.90;;;;;;;-7.07;93.26;98964.19;4185968;28;20047;-72
2022/03/03 05:24:13;;;;;;;28.60;14.50;;;;;;;-7.13;92.44;98966.00;4184815;28;20093;-72
2022/03/03 05:26:14;;;;;;;25.48;13.82;;;;;;;-7.22;91.29;98962.13;4184146;28;20032;-72
2022/03/03 05:28:16;;;;;;;22.20;12.38;;;;;;;-7.30;91.75;98959.88;4181646;28;20036;-72
2022/03/03 05:30:16;;;;;;;24.17;13.20;;;;;;;-7.41;93.12;98967.03;4183680;28;20463;-72
2022/03/03 05:32:17;;;;;;;26.30;13.73;;;;;;;-7.50;93.34;98963.13;4179370;28;20036;-73
2022/03/03 05:34:17;;;;;;;26.48;11.93;;;;;;;-7.58;94.44;98966.25;4187044;28;20103;-73
2022/03/03 05:36:17;;;;;;;28.73;13.10;;;;;;;-7.64;96.30;98969.94;4188530;28;20028;-73
2022/03/03 05:38:18;;;;;;;25.77;13.75;;;;;;;-7.63;97.08;98966.19;4189432;28;20208;-72
2022/03/03 05:40:18;;;;;;;34.22;15.88;;;;;;;-7.60;97.38;98963.00;4193821;28;20826;-72
2022/03/03 05:42:20;;;;;;;24.58;13.35;;;;;;;-7.60;97.31;98970.25;4189986;28;20040;-73
2022/03/03 05:44:21;;;;;;;26.30;12.23;;;;;;;-7.61;95.85;98969.44;4191432;28;20107;-73
2022/03/03 05:46:21;;;;;;;22.00;12.48;;;;;;;-7.64;95.10;98972.63;4192510;28;20302;-72
2022/03/03 05:48:23;;;;;;;26.08;14.00;;;;;;;-7.64;96.41;98975.31;4189681;28;20080;-73
2022/03/03 05:50:24;;;;;;;24.95;13.45;;;;;;;-7.56;96.15;98977.56;4182241;28;20484;-73
2022/03/03 05:52:24;;;;;;;29.13;13.30;;;;;;;-7.51;95.07;98979.53;4181064;28;20105;-73
2022/03/03 05:54:25;;;;;;;30.13;13.93;;;;;;;-7.53;95.36;98976.25;4190911;28;20060;-73
2022/03/03 05:56:26;;;;;;;28.35;13.60;;;;;;;-7.58;94.88;98985.06;4190043;28;20048;-73
2022/03/03 05:58:46;;;;;;;28.83;14.30;;;;;;;-7.61;94.86;98982.88;4129181;28;20044;-73
2022/03/03 06:00:48;;;;;;;24.02;13.32;;;;;;;-7.69;95.34;98978.75;4189710;28;20110;-72
2022/03/03 06:02:51;;;;;;;28.73;13.27;;;;;;;-7.70;96.30;98982.47;4194626;28;20106;-73
2022/03/03 06:04:51;;;;;;;27.85;12.80;;;;;;;-7.76;95.58;98986.16;4188688;28;20160;-73
2022/03/03 06:07:10;;;;;;;22.85;12.52;;;;;;;-7.78;96.97;98995.50;4184679;28;20123;-73
2022/03/03 06:09:14;;;;;;;26.75;13.57;;;;;;;-7.76;97.18;98988.03;4185547;28;20093;-73
2022/03/03 06:11:16;;;;;;;35.92;13.40;;;;;;;-7.73;97.52;98990.22;4186548;28;20863;-73
2022/03/03 06:13:25;;;;;;;26.45;13.20;;;;;;;-7.72;97.80;98999.91;4185472;28;20036;-73
2022/03/03 06:15:26;;;;;;;28.58;13.07;;;;;;;-7.74;97.30;98994.78;4185487;28;20151;-73
2022/03/03 06:17:27;;;;;;;23.75;14.10;;;;;;;-7.75;97.24;99014.66;4184540;28;20352;-73
2022/03/03 06:19:29;;;;;;;25.33;13.68;;;;;;;-7.77;98.28;99007.91;4189436;28;20048;-72
2022/03/03 06:21:29;;;;;;;31.35;15.15;;;;;;;-7.79;98.16;98996.56;4191720;28;20044;-72
2022/03/03 06:23:30;;;;;;;34.83;15.15;;;;;;;-7.78;97.63;98987.44;4192709;28;20118;-73
2022/03/03 06:25:30;;;;;;;30.35;13.80;;;;;;;-7.68;97.42;99006.44;4184689;28;20060;-73
2022/03/03 06:27:31;;;;;;;30.17;14.98;;;;;;;-7.64;96.64;99016.41;4185766;28;20161;-73
2022/03/03 06:29:33;;;;;;;32.92;16.83;;;;;;;-7.61;95.34;99014.28;4187374;28;20049;-73
2022/03/03 06:31:33;;;;;;;29.08;15.23;;;;;;;-7.58;95.80;99017.31;4185021;28;20040;-73
2022/03/03 06:33:34;;;;;;;32.50;14.80;;;;;;;-7.49;95.05;99010.44;4180233;28;20391;-73
2022/03/03 06:35:37;;;;;;;32.80;15.25;;;;;;;-7.40;94.40;99016.22;4183136;28;20052;-73
2022/03/03 06:37:37;;;;;;;;;;;;;;;-7.28;93.59;99024.16;4182193;28;20067;-73
2022/03/03 06:39:37;;;;;;;36.45;16.30;;;;;;;-7.22;92.91;99018.59;4190006;28;19920;-73
2022/03/03 06:41:38;;;;;;;37.88;17.48;;;;;;;-7.13;92.46;99005.53;4190281;28;20081;-73
2022/03/03 06:43:38;;;;;;;38.15;17.15;;;;;;;-7.07;91.09;99015.31;4187740;28;20460;-72
2022/03/03 06:45:39;;;;;;;37.53;17.35;;;;;;;-7.01;91.23;99008.13;4191724;28;20080;-73
2022/03/03 06:47:39;;;;;;;40.65;18.73;;;;;;;-6.95;91.37;99013.31;4191979;28;20048;-73
2022/03/03 06:49:40;;;;;;;33.78;16.83;;;;;;;-6.89;91.76;99014.97;4194553;28;20040;-73
2022/03/03 06:51:47;;;;;;;39.78;18.05;;;;;;;-6.86;90.77;99011.81;4193339;28;20450;-72
2022/03/03 06:53:51;;;;;;;40.78;18.92;;;;;;;-6.85;90.01;99004.53;4192521;28;20043;-72
2022/03/03 06:55:54;;;;;;;38.22;19.52;;;;;;;-6.80;90.96;99015.34;4190917;28;20229;-73
2022/03/03 06:57:56;;;;;;;36.25;19.50;;;;;;;-6.75;90.13;99014.59;4190971;28;20507;-72
2022/03/03 07:00:00;;;;;;;27.65;15.98;;;;;;;-6.74;89.79;99010.84;4191703;28;20311;-72
2022/03/03 07:02:01;;;;;;;39.67;17.55;;;;;;;-6.72;89.98;99020.28;4194250;28;20052;-73
2022/03/03 07:04:01;;;;;;;35.83;16.50;;;;;;;-6.69;90.20;99016.28;4193067;28;20058;-73
2022/03/03 07:06:03;;;;;;;32.65;16.50;;;;;;;-6.64;89.96;99017.13;4192626;28;20035;-73
2022/03/03 07:08:05;;;;;;;35.17;17.50;;;;;;;-6.56;89.85;99002.41;4187156;28;20025;-73
2022/03/03 07:10:06;;;;;;;31.58;17.00;;;;;;;-6.52;88.85;99000.84;4188445;28;20033;-73
2022/03/03 07:12:07;;;;;;;32.58;16.48;;;;;;;-6.46;89.69;98989.03;4188134;28;20035;-73
2022/03/03 07:14:07;;;;;;;37.25;16.45;;;;;;;-6.47;89.19;98990.13;4188437;28;20047;-73
2022/03/03 07:16:16;;;;;;;32.90;17.20;;;;;;;-6.42;88.73;98987.50;4188084;28;20119;-73
2022/03/03 07:18:20;;;;;;;36.38;17.85;;;;;;;-6.33;88.90;98982.44;4187426;28;20119;-73
2022/03/03 07:20:55;;;;;;;37.08;18.40;;;;;;;-6.26;89.18;98980.38;4188216;28;20281;-73
2022/03/03 07:23:10;;;;;;;29.58;16.08;;;;;;;-6.24;89.00;98975.53;4152742;28;20041;-73
2022/03/03 07:25:14;;;;;;;35.65;17.00;;;;;;;-6.14;87.57;98982.88;4187021;28;20469;-73
2022/03/03 07:27:20;;;;;;;34.08;16.38;;;;;;;-6.12;88.20;98986.94;4186824;28;20277;-72
2022/03/03 07:29:25;;;;;;;34.50;16.38;;;;;;;-6.09;88.29;98986.44;4188007;28;20049;-72
2022/03/03 07:31:29;;;;;;;29.85;15.57;;;;;;;-6.03;89.05;98977.31;4196452;28;20039;-72
2022/03/03 07:34:06;;;;;;;33.67;16.83;;;;;;;-5.99;89.42;98978.41;4203515;28;20430;-73
2022/03/03 07:36:09;;;;;;;34.35;16.48;;;;;;;-5.90;89.07;98984.09;4185964;28;20044;-73
2022/03/03 07:38:13;;;;;;;35.97;18.08;;;;;;;-5.84;87.16;98975.00;4192006;28;20187;-73
2022/03/03 07:40:13;;;;;;;34.78;17.60;;;;;;;-5.78;86.44;98973.97;4187832;28;20153;-73
2022/03/03 07:42:17;;;;;;;34.47;17.02;;;;;;;-5.71;86.20;98974.56;4202571;28;20044;-73
2022/03/03 07:44:18;;;;;;;36.55;18.20;;;;;;;-5.66;85.48;98982.66;4202872;28;20036;-73
2022/03/03 07:46:19;;;;;;;39.97;20.25;;;;;;;-5.63;86.05;98973.22;4201932;28;20024;-73
2022/03/03 07:48:22;;;;;;;35.22;18.90;;;;;;;-5.58;86.42;98962.50;4184663;28;20044;-73
2022/03/03 07:50:25;;;;;;;39.15;18.13;;;;;;;-5.52;86.54;98963.34;4183433;28;20062;-72
2022/03/03 07:52:26;;;;;;;38.38;18.33;;;;;;;-5.47;87.61;98958.75;4183786;28;20137;-73
2022/03/03 07:54:26;;;;;;;43.20;18.80;;;;;;;-5.43;87.08;98962.56;4182452;28;20072;-73
2022/03/03 07:56:32;;;;;;;31.90;17.65;;;;;;;-5.35;86.90;98965.84;4185108;28;20079;-73
2022/03/03 07:58:41;;;;;;;31.55;14.95;;;;;;;-5.26;87.18;98967.78;4183977;28;20059;-73
2022/03/03 08:00:47;;;;;;;28.10;13.95;;;;;;;-5.16;88.05;98967.00;4183562;28;20045;-72
2022/03/03 08:02:50;;;;;;;29.08;15.93;;;;;;;-5.08;87.72;98974.59;4183009;28;20057;-73
2022/03/03 08:04:51;;;;;;;34.97;17.55;;;;;;;-4.99;88.44;98975.72;4183227;28;20049;-73
2022/03/03 08:06:55;;;;;;;36.37;18.00;;;;;;;-4.88;89.83;98973.84;4184901;28;20084;-72
2022/03/03 08:08:58;;;;;;;32.42;17.90;;;;;;;-4.79;91.49;98971.47;4183024;28;20067;-72
2022/03/03 08:11:06;;;;;;;28.85;15.50;;;;;;;-4.71;91.23;98969.06;4184021;28;20041;-72
2022/03/03 08:13:10;;;;;;;28.33;14.38;;;;;;;-4.60;90.46;98978.00;4185907;28;20064;-73
2022/03/03 08:15:12;;;;;;;22.05;12.02;;;;;;;-4.53;90.62;98979.34;4185085;28;20051;-73
2022/03/03 08:17:14;;;;;;;31.42;14.32;;;;;;;-4.49;89.13;98968.00;4183513;28;20052;-73
2022/03/03 08:19:15;;;;;;;29.10;13.57;;;;;;;-4.49;88.24;98974.22;4182999;28;20044;-72
2022/03/03 08:21:16;;;;;;;23.70;12.27;;;;;;;-4.44;87.36;98973.44;4186975;28;20458;-72
2022/03/03 08:23:17;;;;;;;27.48;12.90;;;;;;;-4.40;88.38;98978.00;4182895;28;20109;-72
2022/03/03 08:25:18;;;;;;;25.40;12.13;;;;;;;-4.33;87.82;98973.16;4183456;28;20412;-72
2022/03/03 08:27:20;;;;;;;26.45;13.25;;;;;;;-4.27;87.64;98972.09;4190204;28;20091;-72
2022/03/03 08:29:22;;;;;;;23.05;13.00;;;;;;;-4.19;87.42;98973.44;4192212;28;20060;-72
2022/03/03 08:31:32;;;;;;;22.58;12.57;;;;;;;-4.08;87.45;98983.16;4187382;28;20076;-72
2022/03/03 08:33:49;;;;;;;27.30;13.18;;;;;;;-4.00;87.73;98979.94;4187434;28;20088;-72
2022/03/03 08:35:55;;;;;;;27.30;13.00;;;;;;;-3.91;87.93;98984.78;4191371;28;20044;-72
2022/03/03 08:38:02;;;;;;;29.88;12.93;;;;;;;-3.85;89.27;98989.94;4183792;28;20284;-72
2022/03/03 08:40:09;;;;;;;24.17;12.38;;;;;;;-3.76;89.61;98993.72;4187884;28;20611;-72
2022/03/03 08:42:13;;;;;;;26.40;13.45;;;;;;;-3.68;89.37;98995.06;4185866;28;20067;-72
2022/03/03 08:44:19;;;;;;;27.73;14.32;;;;;;;-3.57;90.90;98990.44;4183823;28;20063;-72
2022/03/03 08:46:25;;;;;;;27.45;14.68;;;;;;;-3.47;92.22;98990.44;4191029;28;20576;-72
2022/03/03 08:48:30;;;;;;;23.10;13.88;;;;;;;-3.40;89.87;98994.44;4186076;28;20193;-72
2022/03/03 08:50:33;;;;;;;24.38;12.93;;;;;;;-3.34;88.06;98992.56;4186361;28;20052;-72
2022/03/03 08:52:38;;;;;;;26.17;13.85;;;;;;;-3.28;86.42;98986.06;4187073;28;20033;-73
2022/03/03 08:54:38;;;;;;;23.95;13.60;;;;;;;-3.23;86.25;98987.91;4186845;28;20276;-72
2022/03/03 08:56:39;;;;;;;30.52;14.77;;;;;;;-3.17;86.43;98976.81;4186450;28;20120;-72
2022/03/03 08:58:40;;;;;;;36.63;17.08;;;;;;;-3.07;89.17;98965.13;4188696;28;20473;-72
2022/03/03 09:00:41;;;;;;;32.60;16.38;;;;;;;-2.98;90.12;98974.31;4188969;28;20087;-72
2022/03/03 09:02:41;;;;;;;28.38;15.52;;;;;;;-2.89;91.03;98969.94;4196552;28;20059;-72
2022/03/03 09:04:45;;;;;;;26.35;14.20;;;;;;;-2.85;89.53;98968.28;4193737;28;20071;-72
2022/03/03 09:06:46;;;;;;;28.70;15.18;;;;;;;-2.77;89.15;98963.38;4185619;28;20279;-72
2022/03/03 09:08:47;;;;;;;33.05;15.60;;;;;;;-2.67;89.70;98960.59;4186687;28;20372;-72
2022/03/03 09:10:48;;;;;;;26.90;15.30;;;;;;;-2.58;89.57;98965.16;4186309;28;20052;-72
2022/03/03 09:12:49;;;;;;;32.50;17.50;;;;;;;-2.51;89.90;98969.44;4188881;28;20040;-72
2022/03/03 09:14:49;;;;;;;31.80;15.75;;;;;;;-2.47;87.97;98956.97;4200683;28;20439;-73
2022/03/03 09:16:49;;;;;;;37.42;17.33;;;;;;;-2.40;88.26;98949.31;4200545;28;20032;-73
2022/03/03 09:18:50;;;;;;;32.20;15.38;;;;;;;-2.37;86.25;98952.28;4196484;28;20522;-72
2022/03/03 09:20:50;;;;;;;35.28;16.25;;;;;;;-2.29;86.99;98946.28;4190508;28;20041;-72
2022/03/03 09:22:50;;;;;;;26.67;14.80;;;;;;;-2.20;87.24;98948.38;4187106;28;20028;-72